Terminal Aerodrome Forecast
Issued by NWS

Home | Current Version | Previous Version | Graphics & Text | Print | Product List | Glossary On
Versions: 1 2 3 4 5 6 7 8 9 10 11 12 13 14 15 16 17 18 19 20 21 22
567
FTUS43 KBIS 202152 AAB
TAFMOT
TAF AMD
KMOT 202152Z 2022/2118 13005KT 6SM BR BKN006
     FM202300 14006KT 2SM BR OVC005
     FM210000 14005KT 1 1/2SM BR OVC004
     FM210400 VRB03KT 1SM -FZDZ BR BKN003=

USA.gov is the U.S. government's official web portal to all federal, state and local government web resources and services.